createdAt,value
2023-06-07T00:00:12.831Z,8.82
2023-06-07T00:03:16.162Z,8.75
2023-06-07T00:06:20.351Z,8.03
2023-06-07T00:09:22.782Z,7.93
2023-06-07T00:12:25.210Z,8.35
2023-06-07T00:15:27.620Z,8.45
2023-06-07T00:18:30.255Z,8.45
2023-06-07T00:21:32.806Z,8.17
2023-06-07T00:24:35.329Z,7.63
2023-06-07T00:27:37.927Z,10.15
2023-06-07T00:30:40.943Z,7.25
2023-06-07T00:33:44.604Z,8.85
2023-06-07T00:36:48.540Z,9.43
2023-06-07T00:39:51.035Z,8.27
2023-06-07T00:42:54.430Z,8.95
2023-06-07T00:45:56.942Z,9.50
2023-06-07T00:48:59.914Z,8.35
2023-06-07T00:52:02.660Z,7.83
2023-06-07T00:55:06.586Z,9.00
2023-06-07T00:58:09.110Z,9.32
2023-06-07T01:01:14.121Z,8.50
2023-06-07T01:04:19.355Z,11.43
2023-06-07T01:07:26.007Z,10.43
2023-06-07T01:10:28.921Z,8.50
2023-06-07T01:13:32.304Z,9.48
2023-06-07T01:16:35.002Z,8.25
2023-06-07T01:19:40.394Z,8.38
2023-06-07T01:22:46.055Z,11.37
2023-06-07T01:25:48.670Z,9.17
2023-06-07T01:28:51.180Z,9.38
2023-06-07T01:31:55.176Z,8.50
2023-06-07T01:34:57.982Z,8.27
2023-06-07T01:38:01.727Z,8.63
2023-06-07T01:41:04.558Z,8.87
2023-06-07T01:44:07.065Z,9.93
2023-06-07T01:47:10.623Z,9.88
2023-06-07T01:50:13.087Z,9.88
2023-06-07T01:53:15.670Z,14.13
2023-06-07T01:56:26.953Z,11.87
2023-06-07T01:59:51.179Z,11.80
2023-06-07T02:02:59.584Z,9.60
2023-06-07T02:06:04.035Z,8.85
2023-06-07T02:09:08.829Z,11.90
2023-06-07T02:12:12.521Z,11.23
2023-06-07T02:15:15.333Z,13.27
2023-06-07T02:18:20.607Z,11.40
2023-06-07T02:21:23.184Z,12.15
2023-06-07T02:24:26.622Z,11.07
2023-06-07T02:27:29.153Z,12.30
2023-06-07T02:30:31.713Z,11.60
2023-06-07T02:33:34.170Z,12.30
2023-06-07T02:36:41.029Z,12.60
2023-06-07T02:39:43.615Z,12.00
2023-06-07T02:42:49.621Z,14.00
2023-06-07T02:45:52.145Z,8.73
2023-06-07T02:48:54.756Z,11.73
2023-06-07T02:51:58.472Z,14.13
2023-06-07T02:55:01.575Z,10.73
2023-06-07T02:58:04.179Z,9.63
2023-06-07T03:01:10.879Z,12.07
2023-06-07T03:04:21.222Z,14.32
2023-06-07T03:07:27.049Z,10.52
2023-06-07T03:10:29.852Z,11.90
2023-06-07T03:13:32.349Z,10.97
2023-06-07T03:16:36.174Z,10.80
2023-06-07T03:19:41.911Z,11.57
2023-06-07T03:22:46.131Z,12.93
2023-06-07T03:25:50.703Z,14.93
2023-06-07T03:28:59.303Z,14.13
2023-06-07T03:32:06.687Z,12.90
2023-06-07T03:35:11.995Z,11.85
2023-06-07T03:38:16.322Z,13.25
2023-06-07T03:41:19.791Z,10.43
2023-06-07T03:44:22.404Z,11.23
2023-06-07T03:47:24.957Z,10.18
2023-06-07T03:50:27.627Z,16.33
2023-06-07T03:53:30.282Z,13.85
2023-06-07T03:56:33.132Z,14.10
2023-06-07T03:59:36.073Z,15.60
2023-06-07T04:02:40.560Z,10.18
2023-06-07T04:05:43.131Z,11.27
2023-06-07T04:08:48.052Z,11.05
2023-06-07T04:11:50.854Z,12.37
2023-06-07T04:14:53.892Z,13.07
2023-06-07T04:17:56.474Z,19.30
2023-06-07T04:20:59.044Z,17.63
2023-06-07T04:24:03.040Z,14.00
2023-06-07T04:27:12.294Z,12.90
2023-06-07T04:30:19.460Z,10.47
2023-06-07T04:33:24.514Z,15.07
2023-06-07T04:36:29.642Z,17.90
2023-06-07T04:39:34.221Z,21.42
2023-06-07T04:42:38.767Z,14.73
2023-06-07T04:45:42.575Z,16.50
2023-06-07T04:48:47.211Z,14.32
2023-06-07T04:51:51.785Z,13.48
2023-06-07T04:54:58.132Z,12.82
2023-06-07T04:58:06.986Z,13.20
2023-06-07T05:01:12.047Z,14.23
2023-06-07T05:04:17.999Z,12.25
2023-06-07T05:07:28.027Z,15.70
2023-06-07T05:10:32.001Z,14.20
2023-06-07T05:13:37.151Z,19.90
2023-06-07T05:16:43.640Z,11.93
2023-06-07T05:19:47.916Z,23.98
2023-06-07T05:22:51.270Z,10.60
2023-06-07T05:25:54.410Z,20.48
2023-06-07T05:28:57.436Z,12.53
2023-06-07T05:32:00.373Z,9.87
2023-06-07T05:35:04.188Z,12.80
2023-06-07T05:38:09.667Z,13.18
2023-06-07T05:41:12.369Z,10.80
2023-06-07T05:44:15.012Z,13.13
2023-06-07T05:47:18.407Z,12.70
2023-06-07T05:50:22.108Z,14.13
2023-06-07T05:53:24.899Z,12.82
2023-06-07T05:56:31.533Z,11.18
2023-06-07T05:59:34.207Z,12.13
2023-06-07T06:02:38.456Z,11.60
2023-06-07T06:05:41.791Z,10.95
2023-06-07T06:08:45.326Z,9.85
2023-06-07T06:11:48.855Z,11.27
2023-06-07T06:14:51.411Z,10.03
2023-06-07T06:17:56.948Z,11.13
2023-06-07T06:20:59.718Z,11.70
2023-06-07T06:24:04.179Z,10.40
2023-06-07T06:27:09.790Z,9.70
2023-06-07T06:30:12.720Z,9.63
2023-06-07T06:33:15.190Z,12.60
2023-06-07T06:36:18.309Z,10.38
2023-06-07T06:39:21.164Z,10.32
2023-06-07T06:42:23.908Z,9.27
2023-06-07T06:45:45.830Z,9.37
2023-06-07T06:49:02.822Z,9.70
2023-06-07T06:52:11.442Z,9.32
2023-06-07T06:55:14.003Z,9.27
2023-06-07T06:58:17.233Z,9.05
2023-06-07T07:01:19.964Z,12.30
2023-06-07T07:04:23.297Z,8.73
2023-06-07T07:07:27.683Z,11.32
2023-06-07T07:10:30.333Z,10.77
2023-06-07T07:13:32.798Z,10.02
2023-06-07T07:16:39.310Z,10.67
2023-06-07T07:19:42.088Z,8.93
2023-06-07T07:22:45.784Z,9.50
2023-06-07T07:25:48.411Z,9.73
2023-06-07T07:28:53.878Z,11.68
2023-06-07T07:31:56.638Z,10.13
2023-06-07T07:34:59.139Z,11.93
2023-06-07T07:38:02.236Z,10.82
2023-06-07T07:41:06.191Z,10.90
2023-06-07T07:44:08.962Z,10.63
2023-06-07T07:47:13.135Z,10.93
2023-06-07T07:50:17.624Z,9.23
2023-06-07T07:53:20.196Z,11.55
2023-06-07T07:56:22.628Z,9.95
2023-06-07T07:59:25.212Z,10.80
2023-06-07T08:02:27.933Z,9.20
2023-06-07T08:05:30.439Z,8.43
2023-06-07T08:08:32.926Z,11.32
2023-06-07T08:11:35.469Z,9.38
2023-06-07T08:14:38.114Z,7.90
2023-06-07T08:17:41.745Z,7.97
2023-06-07T08:20:44.624Z,7.47
2023-06-07T08:23:47.162Z,7.95
2023-06-07T08:26:50.627Z,7.97
2023-06-07T08:29:53.086Z,6.90
2023-06-07T08:32:55.728Z,9.00
2023-06-07T08:35:58.167Z,10.83
2023-06-07T08:39:00.792Z,8.45
2023-06-07T08:42:03.692Z,8.82
2023-06-07T08:45:06.885Z,10.13
2023-06-07T08:48:13.280Z,7.90
2023-06-07T08:51:17.928Z,9.27
2023-06-07T08:54:26.713Z,10.00
2023-06-07T08:57:29.888Z,7.30
2023-06-07T09:00:32.415Z,10.05
2023-06-07T09:03:35.132Z,9.10
2023-06-07T09:06:37.832Z,7.87
2023-06-07T09:09:41.855Z,8.07
2023-06-07T09:12:48.307Z,6.90
2023-06-07T09:15:51.164Z,8.45
2023-06-07T09:18:57.292Z,9.00
2023-06-07T09:21:59.959Z,9.07
2023-06-07T09:25:08.461Z,7.38
2023-06-07T09:28:13.413Z,7.53
2023-06-07T09:31:36.258Z,7.35
2023-06-07T09:34:38.867Z,7.23
2023-06-07T09:37:45.964Z,6.23
2023-06-07T09:40:52.647Z,7.80
2023-06-07T09:43:55.942Z,6.05
2023-06-07T09:47:03.060Z,5.75
2023-06-07T09:50:11.692Z,6.60
2023-06-07T09:53:14.755Z,6.07
2023-06-07T09:56:17.671Z,5.35
2023-06-07T09:59:21.079Z,4.40
2023-06-07T10:02:26.956Z,4.85
2023-06-07T10:05:29.495Z,6.03
2023-06-07T10:08:32.811Z,4.47
2023-06-07T10:11:37.532Z,4.68
2023-06-07T10:14:41.529Z,5.25
2023-06-07T10:18:07.165Z,5.10
2023-06-07T10:21:14.750Z,6.07
2023-06-07T10:24:27.297Z,7.40
2023-06-07T10:27:36.537Z,5.45
2023-06-07T10:30:44.760Z,5.43
2023-06-07T10:33:49.415Z,10.05
2023-06-07T10:36:51.920Z,5.60
2023-06-07T10:39:54.488Z,7.20
2023-06-07T10:42:59.186Z,6.18
2023-06-07T10:46:21.023Z,5.18
2023-06-07T10:49:40.122Z,4.07
2023-06-07T10:52:58.234Z,5.67
2023-06-07T10:56:33.076Z,6.20
2023-06-07T10:59:40.678Z,4.53
2023-06-07T11:02:43.284Z,6.65
2023-06-07T11:05:55.206Z,5.25
2023-06-07T11:09:20.908Z,5.67
2023-06-07T11:12:47.615Z,5.90
2023-06-07T11:15:50.287Z,4.30
2023-06-07T11:19:11.072Z,4.70
2023-06-07T11:22:17.306Z,4.70
2023-06-07T11:25:19.804Z,4.63
2023-06-07T11:28:27.807Z,4.87
2023-06-07T11:31:30.313Z,4.82
2023-06-07T11:34:34.538Z,5.03
2023-06-07T11:37:37.211Z,3.42
2023-06-07T11:40:39.867Z,3.63
2023-06-07T11:43:42.403Z,3.60
2023-06-07T11:46:45.943Z,4.32
2023-06-07T11:49:48.451Z,4.05
2023-06-07T11:52:50.907Z,3.38
2023-06-07T11:55:54.201Z,5.53
2023-06-07T11:58:58.580Z,3.40
2023-06-07T12:02:01.237Z,4.20
2023-06-07T12:05:04.262Z,4.40
2023-06-07T12:08:09.481Z,3.38
2023-06-07T12:11:11.996Z,3.60
2023-06-07T12:14:30.230Z,3.77
2023-06-07T12:17:36.238Z,4.07
2023-06-07T12:20:38.742Z,3.72
2023-06-07T12:23:49.275Z,3.17
2023-06-07T12:26:57.805Z,3.30
2023-06-07T12:30:00.517Z,3.33
2023-06-07T12:33:03.099Z,4.93
2023-06-07T12:36:07.481Z,3.63
2023-06-07T12:39:12.934Z,3.88
2023-06-07T12:42:15.836Z,3.70
2023-06-07T12:45:18.462Z,3.67
2023-06-07T12:48:21.001Z,4.30
2023-06-07T12:51:23.867Z,6.60
2023-06-07T12:54:27.396Z,10.57
2023-06-07T12:57:30.046Z,3.60
2023-06-07T13:00:32.612Z,3.80
2023-06-07T13:03:35.281Z,4.03
2023-06-07T13:06:38.417Z,4.22
2023-06-07T13:09:40.947Z,3.95
2023-06-07T13:12:43.501Z,4.10
2023-06-07T13:15:46.917Z,4.67
2023-06-07T13:18:50.019Z,5.95
2023-06-07T13:21:52.595Z,4.75
2023-06-07T13:24:55.565Z,5.15
2023-06-07T13:27:58.166Z,4.50
2023-06-07T13:31:01.989Z,4.90
2023-06-07T13:34:04.615Z,5.70
2023-06-07T13:37:07.434Z,6.60
2023-06-07T13:40:10.538Z,5.30
2023-06-07T13:43:13.282Z,7.40
2023-06-07T13:46:16.339Z,6.90
2023-06-07T13:49:20.287Z,11.35
2023-06-07T13:52:23.676Z,5.18
2023-06-07T13:55:26.267Z,5.72
2023-06-07T13:58:34.656Z,22.63
2023-06-07T14:01:37.669Z,4.83
2023-06-07T14:04:40.329Z,6.03
2023-06-07T14:07:43.283Z,5.30
2023-06-07T14:10:46.101Z,6.78
2023-06-07T14:13:48.624Z,5.77
2023-06-07T14:16:53.421Z,5.43
2023-06-07T14:19:56.087Z,6.57
2023-06-07T14:22:58.747Z,5.80
2023-06-07T14:26:01.269Z,5.65
2023-06-07T14:29:03.879Z,5.63
2023-06-07T14:32:07.130Z,5.97
2023-06-07T14:35:10.453Z,5.43
2023-06-07T14:38:13.260Z,5.80
2023-06-07T14:41:16.121Z,7.22
2023-06-07T14:44:19.695Z,8.33
2023-06-07T14:47:23.118Z,6.43
2023-06-07T14:50:25.743Z,5.90
2023-06-07T14:53:28.290Z,6.68
2023-06-07T14:56:30.902Z,6.28
2023-06-07T14:59:33.476Z,5.57
2023-06-07T15:02:36.314Z,6.43
2023-06-07T15:05:38.918Z,5.82
2023-06-07T15:08:41.520Z,5.78
2023-06-07T15:11:44.479Z,6.63
2023-06-07T15:14:47.088Z,7.00
2023-06-07T15:17:51.861Z,7.27
2023-06-07T15:20:55.955Z,7.72
2023-06-07T15:23:58.650Z,7.03
2023-06-07T15:27:01.715Z,6.22
2023-06-07T15:30:05.720Z,10.67
2023-06-07T15:33:08.468Z,5.87
2023-06-07T15:36:11.104Z,5.80
2023-06-07T15:39:13.674Z,6.05
2023-06-07T15:42:16.370Z,6.55
2023-06-07T15:45:18.974Z,6.90
2023-06-07T15:48:24.254Z,6.93
2023-06-07T15:51:28.841Z,7.35
2023-06-07T15:54:31.428Z,6.57
2023-06-07T15:57:33.954Z,7.00
2023-06-07T16:00:39.286Z,6.00
2023-06-07T16:03:55.134Z,6.80
2023-06-07T16:06:59.602Z,6.10
2023-06-07T16:10:04.052Z,6.65
2023-06-07T16:13:06.818Z,8.05
2023-06-07T16:16:09.353Z,6.07
2023-06-07T16:19:11.968Z,7.20
2023-06-07T16:22:15.295Z,7.65
2023-06-07T16:25:17.925Z,5.43
2023-06-07T16:28:20.832Z,6.22
2023-06-07T16:31:24.174Z,6.80
2023-06-07T16:34:26.835Z,5.53
2023-06-07T16:37:29.343Z,5.97
2023-06-07T16:40:31.951Z,4.72
2023-06-07T16:43:34.512Z,5.40
2023-06-07T16:46:38.466Z,5.30
2023-06-07T16:49:41.066Z,6.30
2023-06-07T16:52:43.706Z,7.00
2023-06-07T16:55:46.401Z,7.05
2023-06-07T16:58:48.961Z,6.20
2023-06-07T17:01:51.897Z,7.23
2023-06-07T17:04:54.475Z,5.37
2023-06-07T17:07:57.724Z,6.57
2023-06-07T17:11:03.030Z,5.93
2023-06-07T17:14:05.746Z,5.22
2023-06-07T17:17:08.306Z,5.87
2023-06-07T17:20:11.251Z,5.97
2023-06-07T17:23:15.709Z,6.45
2023-06-07T17:26:18.771Z,5.00
2023-06-07T17:32:30.617Z,2.57
2023-06-07T17:35:34.148Z,4.00
2023-06-07T17:38:36.734Z,5.82
2023-06-07T17:41:39.945Z,5.35
2023-06-07T17:44:42.736Z,4.18
2023-06-07T17:47:47.693Z,4.93
2023-06-07T17:50:50.473Z,4.13
2023-06-07T17:53:53.193Z,4.53
2023-06-07T17:56:56.142Z,3.95
2023-06-07T17:59:58.763Z,4.63
2023-06-07T18:03:02.636Z,3.63
2023-06-07T18:06:07.037Z,5.57
2023-06-07T18:09:09.512Z,6.47
2023-06-07T18:12:14.041Z,5.43
2023-06-07T18:15:16.876Z,4.47
2023-06-07T18:18:19.542Z,5.97
2023-06-07T18:21:22.117Z,4.23
2023-06-07T18:24:24.796Z,4.22
2023-06-07T18:27:29.724Z,4.28
2023-06-07T18:30:32.887Z,5.20
2023-06-07T18:33:36.861Z,5.20
2023-06-07T18:36:39.511Z,4.77
2023-06-07T18:39:42.026Z,4.43
2023-06-07T18:42:44.609Z,5.40
2023-06-07T18:45:49.019Z,6.65
2023-06-07T18:48:51.917Z,4.50
2023-06-07T18:51:54.870Z,5.23
2023-06-07T18:54:57.460Z,4.75
2023-06-07T18:57:59.972Z,8.30
2023-06-07T19:01:02.521Z,5.00
2023-06-07T19:04:05.230Z,5.77
2023-06-07T19:07:07.872Z,6.07
2023-06-07T19:10:10.832Z,4.32
2023-06-07T19:13:14.529Z,3.90
2023-06-07T19:16:17.481Z,4.28
2023-06-07T19:19:20.049Z,6.00
2023-06-07T19:22:22.586Z,4.50
2023-06-07T19:25:25.903Z,4.85
2023-06-07T19:28:28.476Z,5.68
2023-06-07T19:31:31.146Z,6.03
2023-06-07T19:34:36.224Z,5.47
2023-06-07T19:37:38.797Z,4.87
2023-06-07T19:40:41.359Z,4.10
2023-06-07T19:43:43.904Z,5.22
2023-06-07T19:46:48.017Z,3.92
2023-06-07T19:49:50.757Z,5.43
2023-06-07T19:52:53.277Z,5.53
2023-06-07T19:55:56.339Z,4.38
2023-06-07T19:59:00.361Z,4.28
2023-06-07T20:02:06.019Z,6.05
2023-06-07T20:05:09.034Z,7.57
2023-06-07T20:08:11.682Z,7.90
2023-06-07T20:11:14.287Z,6.47
2023-06-07T20:14:16.965Z,7.97
2023-06-07T20:17:21.100Z,6.03
2023-06-07T20:20:23.810Z,5.57
2023-06-07T20:23:26.374Z,6.97
2023-06-07T20:26:28.901Z,6.78
2023-06-07T20:29:31.428Z,7.35
2023-06-07T20:32:34.178Z,5.10
2023-06-07T20:35:36.623Z,5.77
2023-06-07T20:38:39.092Z,5.33
2023-06-07T20:41:41.534Z,6.18
2023-06-07T20:44:52.739Z,5.75
2023-06-07T20:47:56.661Z,6.40
2023-06-07T20:50:59.539Z,5.43
2023-06-07T20:54:02.029Z,7.77
2023-06-07T20:57:04.841Z,7.30
2023-06-07T21:00:08.253Z,6.43
2023-06-07T21:03:11.507Z,10.25
2023-06-07T21:06:14.684Z,7.73
2023-06-07T21:09:17.127Z,7.70
2023-06-07T21:12:19.655Z,10.55
2023-06-07T21:15:22.192Z,10.23
2023-06-07T21:18:25.206Z,11.02
2023-06-07T21:21:27.820Z,10.00
2023-06-07T21:24:30.511Z,10.97
2023-06-07T21:27:32.959Z,10.15
2023-06-07T21:30:35.554Z,10.07
2023-06-07T21:33:37.984Z,12.50
2023-06-07T21:36:40.711Z,10.83
2023-06-07T21:39:44.569Z,10.53
2023-06-07T21:42:47.053Z,10.45
2023-06-07T21:45:49.542Z,9.18
2023-06-07T21:48:51.971Z,11.48
2023-06-07T21:51:54.724Z,11.17
2023-06-07T21:54:58.147Z,10.73
2023-06-07T21:58:00.778Z,14.85
2023-06-07T22:01:03.442Z,13.63
2023-06-07T22:04:06.143Z,11.77
2023-06-07T22:07:08.660Z,11.83
2023-06-07T22:10:11.551Z,13.27
2023-06-07T22:13:17.720Z,14.70
2023-06-07T22:16:20.665Z,16.10
2023-06-07T22:19:24.606Z,13.57
2023-06-07T22:22:27.734Z,12.23
2023-06-07T22:25:40.246Z,11.67
2023-06-07T22:28:43.727Z,13.75
2023-06-07T22:31:46.265Z,15.77
2023-06-07T22:34:54.378Z,14.98
2023-06-07T22:37:57.510Z,12.73
2023-06-07T22:41:00.000Z,13.53
2023-06-07T22:44:02.532Z,9.13
2023-06-07T22:47:06.399Z,13.65
2023-06-07T22:50:09.769Z,11.88
2023-06-07T22:53:14.136Z,11.63
2023-06-07T22:56:17.079Z,10.23
2023-06-07T22:59:19.627Z,11.95
2023-06-07T23:02:22.391Z,10.90
2023-06-07T23:05:28.343Z,11.93
2023-06-07T23:08:33.867Z,10.73
2023-06-07T23:11:36.357Z,9.60
2023-06-07T23:14:38.770Z,10.60
2023-06-07T23:17:42.578Z,10.60
2023-06-07T23:20:46.735Z,10.05
2023-06-07T23:23:51.119Z,11.40
2023-06-07T23:26:56.388Z,12.03
2023-06-07T23:29:59.041Z,9.40
2023-06-07T23:33:01.746Z,11.82
2023-06-07T23:36:06.955Z,10.85
2023-06-07T23:39:09.893Z,12.73
2023-06-07T23:42:12.335Z,13.73
2023-06-07T23:45:14.837Z,10.73
2023-06-07T23:48:17.307Z,10.82
2023-06-07T23:51:19.867Z,8.90
2023-06-07T23:54:22.764Z,9.43
2023-06-07T23:57:25.519Z,8.83
